Pingliang, China
Current Conditions -  °F | °C
As of 2:00 AM on Saturday 22 Nov 2014 (Local Time) from ZLXY Reporting Station
Haze Haze  
Wind Chill: 43°   Ceiling: Unl
Heat Index: 43°   Visibility: 0.81mi
Dew Point: 39°   Wind: 2mph
Humidity: 87%   Direction: NA
Pressure: 30.18"   Gusts: NA
Location:  35.53°N, 106.68°E
Report Text: ZLXY 211800Z VRB01MPS 1300 R23R/1900D R23L/2000D BRSCT07006/04 Q1022 NOSIG
Loading
Personal Weather Stations






























Interactive Weather Map New forecast layout! Learn more

10-Day Weather Forecast

Advertisements
Track Severe Weather on mobile